createdAt,value
2019-03-31T00:01:24.185Z,86.80
2019-03-31T00:03:53.698Z,87.10
2019-03-31T00:06:20.014Z,88.10
2019-03-31T00:08:52.102Z,87.90
2019-03-31T00:11:18.412Z,88.30
2019-03-31T00:13:44.898Z,89.60
2019-03-31T00:16:14.466Z,91.20
2019-03-31T00:18:40.894Z,91.30
2019-03-31T00:21:08.166Z,91.20
2019-03-31T00:23:34.426Z,90.60
2019-03-31T00:26:00.790Z,90.10
2019-03-31T00:28:27.137Z,90.00
2019-03-31T00:30:56.455Z,90.10
2019-03-31T00:33:22.754Z,90.60
2019-03-31T00:35:49.117Z,90.80
2019-03-31T00:38:15.378Z,91.10
2019-03-31T00:40:41.781Z,91.20
2019-03-31T00:43:08.058Z,91.30
2019-03-31T00:45:34.339Z,91.90
2019-03-31T00:48:00.653Z,92.60
2019-03-31T00:50:26.904Z,92.40
2019-03-31T00:52:53.190Z,92.10
2019-03-31T00:55:19.571Z,91.90
2019-03-31T00:57:45.844Z,91.40
2019-03-31T01:00:15.360Z,91.10
2019-03-31T01:02:42.450Z,90.70
2019-03-31T01:05:08.701Z,90.20
2019-03-31T01:07:35.186Z,90.80
2019-03-31T01:10:01.630Z,90.30
2019-03-31T01:12:28.299Z,89.70
2019-03-31T01:14:54.702Z,89.00
2019-03-31T01:17:21.410Z,89.00
2019-03-31T01:19:47.683Z,89.50
2019-03-31T01:22:19.750Z,89.30
2019-03-31T01:24:46.092Z,88.60
2019-03-31T01:27:13.252Z,88.70
2019-03-31T01:29:39.558Z,89.90
2019-03-31T01:32:05.850Z,90.20
2019-03-31T01:34:32.223Z,90.50
2019-03-31T01:36:58.486Z,90.50
2019-03-31T01:39:26.369Z,91.20
2019-03-31T01:41:52.729Z,91.80
2019-03-31T01:44:19.114Z,91.80
2019-03-31T01:46:45.457Z,91.20
2019-03-31T01:49:11.733Z,90.60
2019-03-31T01:51:41.280Z,91.20
2019-03-31T01:54:07.817Z,91.20
2019-03-31T01:56:34.143Z,91.10
2019-03-31T01:59:00.503Z,90.60
2019-03-31T02:01:27.959Z,90.30
2019-03-31T02:03:57.417Z,91.20
2019-03-31T02:06:23.692Z,91.90
2019-03-31T02:08:49.987Z,92.20
2019-03-31T02:11:16.320Z,91.90
2019-03-31T02:13:42.723Z,92.30
2019-03-31T02:16:11.600Z,91.80
2019-03-31T02:18:37.859Z,91.00
2019-03-31T02:21:04.149Z,91.30
2019-03-31T02:23:30.426Z,91.60
2019-03-31T02:25:56.685Z,90.80
2019-03-31T02:28:22.976Z,91.00
2019-03-31T02:30:49.282Z,92.50
2019-03-31T02:33:15.533Z,92.90
2019-03-31T02:35:41.807Z,93.10
2019-03-31T02:38:08.124Z,92.70
2019-03-31T02:40:34.384Z,92.40
2019-03-31T02:43:00.650Z,92.60
2019-03-31T02:45:26.963Z,92.80
2019-03-31T02:47:59.353Z,92.60
2019-03-31T02:50:35.637Z,92.70
2019-03-31T02:53:01.990Z,93.70
2019-03-31T02:55:28.267Z,93.80
2019-03-31T02:57:54.554Z,93.90
2019-03-31T03:00:20.823Z,93.80
2019-03-31T03:02:57.844Z,93.60
2019-03-31T03:05:24.344Z,92.40
2019-03-31T03:08:04.462Z,91.60
2019-03-31T03:10:30.822Z,92.20
2019-03-31T03:12:57.383Z,93.60
2019-03-31T03:15:25.582Z,93.90
2019-03-31T03:17:51.892Z,94.30
2019-03-31T03:20:18.224Z,94.10
2019-03-31T03:22:44.530Z,93.50
2019-03-31T03:25:10.896Z,93.20
2019-03-31T03:27:37.332Z,92.60
2019-03-31T03:30:05.411Z,92.00
2019-03-31T03:32:31.736Z,92.00
2019-03-31T03:35:01.390Z,92.20
2019-03-31T03:37:27.941Z,92.50
2019-03-31T03:39:54.238Z,92.30
2019-03-31T03:42:26.412Z,91.70
2019-03-31T03:44:55.794Z,91.50
2019-03-31T03:47:22.092Z,92.00
2019-03-31T03:49:48.407Z,94.10
2019-03-31T03:52:14.709Z,94.70
2019-03-31T03:54:48.299Z,94.70
2019-03-31T03:57:14.641Z,95.70
2019-03-31T03:59:40.884Z,95.20
2019-03-31T04:02:07.151Z,94.60
2019-03-31T04:04:36.530Z,94.60
2019-03-31T04:07:05.893Z,94.70
2019-03-31T04:09:32.329Z,94.40
2019-03-31T04:11:58.726Z,94.00
2019-03-31T04:14:28.028Z,94.10
2019-03-31T04:16:54.413Z,94.00
2019-03-31T04:19:20.740Z,93.80
2019-03-31T04:21:47.099Z,94.40
2019-03-31T04:24:13.394Z,95.00
2019-03-31T04:26:39.726Z,95.10
2019-03-31T04:29:06.144Z,95.20
2019-03-31T04:31:33.622Z,95.10
2019-03-31T04:33:59.912Z,94.90
2019-03-31T04:36:26.339Z,94.80
2019-03-31T04:38:52.590Z,95.50
2019-03-31T04:41:19.081Z,95.70
2019-03-31T04:43:45.613Z,95.40
2019-03-31T04:46:17.927Z,95.70
2019-03-31T04:48:47.375Z,95.20
2019-03-31T04:51:13.743Z,95.50
2019-03-31T04:53:40.085Z,95.30
2019-03-31T04:56:06.454Z,95.10
2019-03-31T04:58:32.735Z,95.10
2019-03-31T05:00:59.030Z,95.20
2019-03-31T05:03:25.333Z,94.80
2019-03-31T05:05:51.592Z,94.20
2019-03-31T05:08:18.886Z,93.40
2019-03-31T05:10:45.144Z,92.90
2019-03-31T05:13:11.503Z,92.20
2019-03-31T05:15:37.760Z,92.30
2019-03-31T05:18:04.142Z,92.80
2019-03-31T05:20:30.460Z,93.10
2019-03-31T05:23:08.839Z,93.60
2019-03-31T05:25:35.190Z,94.90
2019-03-31T05:28:01.750Z,95.30
2019-03-31T05:30:28.186Z,95.10
2019-03-31T05:32:54.483Z,95.10
2019-03-31T05:35:20.788Z,95.00
2019-03-31T05:37:51.320Z,94.50
2019-03-31T05:40:16.376Z,94.10
2019-03-31T05:42:42.743Z,93.40
2019-03-31T05:45:09.051Z,92.90
2019-03-31T05:47:35.407Z,92.90
2019-03-31T05:50:05.107Z,92.30
2019-03-31T05:52:31.387Z,91.80
2019-03-31T05:54:57.824Z,91.30
2019-03-31T05:57:24.191Z,91.90
2019-03-31T05:59:50.459Z,92.00
2019-03-31T06:02:16.710Z,92.10
2019-03-31T06:04:43.053Z,92.20
2019-03-31T06:07:12.425Z,92.00
2019-03-31T06:09:38.619Z,91.90
2019-03-31T06:12:04.909Z,91.10
2019-03-31T06:14:31.280Z,90.40
2019-03-31T06:16:57.571Z,89.70
2019-03-31T06:19:23.946Z,88.40
2019-03-31T06:21:50.258Z,87.70
2019-03-31T06:24:19.670Z,86.90
2019-03-31T06:26:46.015Z,85.90
2019-03-31T06:29:12.427Z,85.20
2019-03-31T06:31:38.747Z,86.10
2019-03-31T06:34:05.084Z,87.60
2019-03-31T06:36:34.499Z,86.30
2019-03-31T06:39:00.803Z,86.40
2019-03-31T06:41:27.154Z,86.90
2019-03-31T06:43:53.476Z,87.00
2019-03-31T06:46:19.780Z,87.40
2019-03-31T06:48:49.131Z,86.60
2019-03-31T06:51:17.099Z,84.60
2019-03-31T06:53:43.546Z,82.10
2019-03-31T06:56:09.909Z,82.80
2019-03-31T06:58:36.275Z,79.80
2019-03-31T07:01:08.399Z,80.50
2019-03-31T07:03:34.907Z,81.60
2019-03-31T07:06:01.219Z,82.70
2019-03-31T07:08:30.565Z,81.70
2019-03-31T07:10:56.889Z,84.30
2019-03-31T07:13:23.159Z,85.10
2019-03-31T07:15:52.550Z,87.20
2019-03-31T07:18:18.926Z,87.80
2019-03-31T07:20:45.278Z,87.40
2019-03-31T07:23:11.569Z,89.30
2019-03-31T07:25:37.865Z,90.30
2019-03-31T07:28:10.252Z,90.20
2019-03-31T07:30:36.582Z,91.20
2019-03-31T07:33:02.962Z,90.80
2019-03-31T07:35:32.318Z,90.70
2019-03-31T07:37:58.598Z,91.00
2019-03-31T07:40:24.904Z,91.80
2019-03-31T07:42:51.537Z,91.40
2019-03-31T07:45:17.895Z,92.00
2019-03-31T07:47:44.227Z,90.80
2019-03-31T07:50:14.396Z,91.10
2019-03-31T07:52:40.727Z,91.10
2019-03-31T07:55:09.149Z,90.90
2019-03-31T07:57:35.488Z,91.10
2019-03-31T08:00:01.827Z,90.80
2019-03-31T08:02:28.137Z,91.70
2019-03-31T08:04:54.382Z,91.40
2019-03-31T08:07:20.831Z,91.60
2019-03-31T08:09:53.119Z,90.40
2019-03-31T08:12:19.432Z,89.50
2019-03-31T08:14:45.770Z,90.40
2019-03-31T08:17:12.103Z,91.00
2019-03-31T08:19:39.398Z,90.00
2019-03-31T08:22:08.918Z,90.30
2019-03-31T08:24:44.036Z,90.50
2019-03-31T08:27:11.910Z,90.60
2019-03-31T08:29:38.489Z,90.30
2019-03-31T08:32:06.458Z,90.90
2019-03-31T08:34:32.874Z,90.70
2019-03-31T08:36:59.165Z,90.90
2019-03-31T08:39:25.469Z,90.60
2019-03-31T08:41:51.832Z,91.20
2019-03-31T08:44:18.103Z,91.40
2019-03-31T08:46:44.362Z,91.50
2019-03-31T08:49:10.701Z,91.00
2019-03-31T08:51:36.985Z,91.20
2019-03-31T08:54:03.290Z,91.30
2019-03-31T08:56:32.810Z,91.10
2019-03-31T08:58:59.117Z,91.10
2019-03-31T09:01:25.371Z,91.10
2019-03-31T09:03:51.809Z,90.60
2019-03-31T09:06:18.277Z,91.10
2019-03-31T09:08:44.545Z,91.10
2019-03-31T09:11:10.963Z,90.60
2019-03-31T09:13:37.401Z,90.50
2019-03-31T09:16:04.518Z,90.90
2019-03-31T09:18:33.981Z,90.00
2019-03-31T09:21:00.321Z,90.10
2019-03-31T09:23:26.646Z,90.10
2019-03-31T09:25:52.956Z,90.10
2019-03-31T09:28:19.243Z,90.30
2019-03-31T09:30:45.558Z,89.10
2019-03-31T09:33:11.827Z,89.60
2019-03-31T09:35:40.251Z,88.90
2019-03-31T09:38:06.578Z,87.90
2019-03-31T09:40:36.358Z,88.40
2019-03-31T09:43:08.651Z,87.10
2019-03-31T09:45:34.983Z,86.30
2019-03-31T09:48:01.519Z,87.10
2019-03-31T09:50:27.869Z,87.40
2019-03-31T09:53:04.988Z,86.70
2019-03-31T09:55:33.365Z,85.50
2019-03-31T09:58:00.774Z,87.10
2019-03-31T10:00:30.891Z,86.10
2019-03-31T10:02:57.238Z,84.50
2019-03-31T10:05:43.663Z,85.00
2019-03-31T10:08:09.987Z,84.20
2019-03-31T10:10:36.363Z,82.90
2019-03-31T10:13:02.910Z,81.80
2019-03-31T10:15:32.791Z,82.40
2019-03-31T10:18:06.883Z,83.10
2019-03-31T10:20:33.270Z,81.60
2019-03-31T10:22:59.835Z,81.60
2019-03-31T10:25:27.358Z,81.00
2019-03-31T10:27:53.638Z,81.10
2019-03-31T10:30:30.587Z,80.00
2019-03-31T10:32:56.929Z,81.20
2019-03-31T10:35:23.286Z,81.20
2019-03-31T10:37:49.653Z,80.10
2019-03-31T10:40:15.975Z,79.20
2019-03-31T10:42:42.333Z,79.10
2019-03-31T10:45:09.102Z,78.20
2019-03-31T10:47:35.402Z,77.30
2019-03-31T10:50:05.079Z,77.60
2019-03-31T10:52:37.245Z,76.70
2019-03-31T10:55:05.210Z,75.90
2019-03-31T10:57:31.570Z,76.30
2019-03-31T11:00:05.279Z,75.70
2019-03-31T11:02:31.596Z,76.90
2019-03-31T11:04:57.861Z,75.80
2019-03-31T11:07:24.183Z,75.80
2019-03-31T11:09:50.525Z,75.20
2019-03-31T11:12:16.801Z,74.20
2019-03-31T11:14:43.149Z,73.90
2019-03-31T11:17:09.435Z,71.90
2019-03-31T11:19:35.759Z,72.30
2019-03-31T11:22:04.036Z,71.80
2019-03-31T11:24:30.358Z,70.70
2019-03-31T11:26:56.628Z,72.30
2019-03-31T11:29:22.883Z,71.70
2019-03-31T11:31:49.264Z,70.90
2019-03-31T11:34:15.700Z,71.70
2019-03-31T11:36:42.016Z,71.40
2019-03-31T11:39:17.228Z,70.70
2019-03-31T11:41:43.538Z,69.60
2019-03-31T11:44:09.793Z,69.20
2019-03-31T11:46:36.185Z,69.50
2019-03-31T11:49:02.468Z,69.30
2019-03-31T11:51:28.767Z,68.70
2019-03-31T11:53:57.218Z,68.80
2019-03-31T11:56:23.501Z,68.10
2019-03-31T11:58:49.910Z,68.10
2019-03-31T12:01:16.166Z,68.20
2019-03-31T12:03:42.446Z,66.10
2019-03-31T12:06:11.201Z,68.10
2019-03-31T12:08:36.881Z,68.20
2019-03-31T12:11:03.352Z,66.00
2019-03-31T12:13:29.691Z,65.70
2019-03-31T12:15:56.090Z,66.20
2019-03-31T12:18:28.460Z,63.90
2019-03-31T12:20:54.740Z,64.30
2019-03-31T12:23:21.057Z,65.00
2019-03-31T12:25:53.563Z,66.00
2019-03-31T12:28:19.834Z,64.80
2019-03-31T12:30:49.423Z,64.50
2019-03-31T12:33:15.722Z,65.20
2019-03-31T12:35:45.069Z,65.10
2019-03-31T12:38:11.335Z,62.70
2019-03-31T12:40:37.630Z,63.90
2019-03-31T12:43:03.977Z,60.20
2019-03-31T12:45:30.378Z,63.00
2019-03-31T12:47:57.042Z,64.00
2019-03-31T12:50:23.329Z,65.00
2019-03-31T12:52:51.359Z,63.20
2019-03-31T12:55:17.728Z,62.50
2019-03-31T12:57:44.191Z,64.40
2019-03-31T13:00:11.239Z,64.20
2019-03-31T13:02:41.524Z,64.60
2019-03-31T13:05:08.850Z,63.00
2019-03-31T13:07:35.142Z,61.90
2019-03-31T13:10:04.451Z,62.80
2019-03-31T13:12:30.711Z,61.90
2019-03-31T13:14:57.041Z,62.30
2019-03-31T13:17:23.457Z,62.10
2019-03-31T13:19:49.718Z,62.90
2019-03-31T13:22:16.026Z,62.60
2019-03-31T13:24:42.449Z,61.80
2019-03-31T13:27:08.864Z,62.50
2019-03-31T13:29:38.224Z,62.80
2019-03-31T13:32:03.422Z,63.10
2019-03-31T13:34:30.832Z,62.10
2019-03-31T13:36:57.130Z,62.30
2019-03-31T13:39:23.650Z,61.90
2019-03-31T13:41:49.960Z,63.90
2019-03-31T13:44:19.310Z,63.00
2019-03-31T13:46:51.765Z,63.50
2019-03-31T13:49:18.062Z,62.80
2019-03-31T13:51:44.363Z,61.60
2019-03-31T13:54:10.779Z,62.90
2019-03-31T13:56:37.336Z,64.40
2019-03-31T13:59:03.768Z,63.80
2019-03-31T14:01:30.140Z,63.20
2019-03-31T14:03:56.626Z,64.50
2019-03-31T14:06:22.909Z,64.20
2019-03-31T14:08:49.247Z,64.50
2019-03-31T14:11:15.592Z,65.60
2019-03-31T14:13:42.030Z,66.60
2019-03-31T14:16:14.518Z,63.80
2019-03-31T14:18:40.957Z,65.50
2019-03-31T14:21:07.201Z,65.90
2019-03-31T14:23:36.863Z,65.60
2019-03-31T14:26:03.215Z,66.90
2019-03-31T14:28:29.537Z,66.10
2019-03-31T14:30:55.860Z,66.10
2019-03-31T14:33:22.147Z,66.00
2019-03-31T14:35:49.868Z,65.60
2019-03-31T14:38:16.244Z,65.20
2019-03-31T14:40:42.523Z,66.80
2019-03-31T14:43:08.988Z,66.00
2019-03-31T14:45:35.304Z,65.20
2019-03-31T14:48:01.596Z,67.00
2019-03-31T14:50:31.679Z,65.10
2019-03-31T14:52:58.427Z,65.50
2019-03-31T14:55:24.703Z,64.80
2019-03-31T14:57:51.068Z,64.60
2019-03-31T15:00:17.491Z,64.00
2019-03-31T15:02:53.762Z,63.80
2019-03-31T15:05:20.446Z,64.90
2019-03-31T15:07:46.703Z,63.90
2019-03-31T15:10:13.207Z,64.30
2019-03-31T15:12:39.541Z,64.20
2019-03-31T15:15:05.917Z,64.50
2019-03-31T15:17:32.512Z,64.80
2019-03-31T15:19:59.415Z,64.40
2019-03-31T15:22:25.937Z,63.70
2019-03-31T15:24:52.364Z,63.60
2019-03-31T15:27:19.102Z,62.70
2019-03-31T15:29:45.754Z,63.40
2019-03-31T15:32:12.317Z,63.90
2019-03-31T15:34:38.636Z,62.70
2019-03-31T15:37:04.943Z,64.40
2019-03-31T15:39:31.225Z,64.70
2019-03-31T15:41:57.566Z,64.20
2019-03-31T15:44:23.903Z,64.90
2019-03-31T15:46:50.233Z,64.90
2019-03-31T15:49:16.558Z,63.90
2019-03-31T15:51:43.851Z,63.60
2019-03-31T15:54:10.165Z,63.40
2019-03-31T15:56:36.612Z,63.60
2019-03-31T15:59:03.152Z,63.60
2019-03-31T16:01:29.451Z,63.70
2019-03-31T16:03:55.777Z,63.00
2019-03-31T16:06:22.106Z,63.10
2019-03-31T16:08:48.479Z,62.70
2019-03-31T16:11:14.820Z,62.60
2019-03-31T16:13:41.047Z,62.00
2019-03-31T16:16:07.338Z,63.00
2019-03-31T16:18:33.615Z,61.70
2019-03-31T16:21:03.240Z,61.60
2019-03-31T16:23:29.514Z,62.20
2019-03-31T16:25:59.339Z,62.60
2019-03-31T16:28:25.587Z,62.70
2019-03-31T16:30:58.226Z,62.50
2019-03-31T16:33:24.611Z,62.70
2019-03-31T16:35:50.970Z,61.80
2019-03-31T16:38:17.387Z,61.80
2019-03-31T16:40:43.713Z,61.80
2019-03-31T16:43:10.013Z,62.20
2019-03-31T16:45:40.269Z,62.80
2019-03-31T16:48:06.615Z,61.40
2019-03-31T16:50:32.931Z,61.90
2019-03-31T16:53:00.095Z,62.90
2019-03-31T16:55:33.013Z,63.10
2019-03-31T16:58:02.697Z,63.30
2019-03-31T17:00:28.950Z,62.90
2019-03-31T17:02:55.440Z,63.30
2019-03-31T17:05:22.634Z,63.00
2019-03-31T17:07:49.090Z,63.60
2019-03-31T17:10:15.575Z,64.00
2019-03-31T17:12:47.701Z,64.60
2019-03-31T17:15:13.945Z,63.60
2019-03-31T17:17:42.262Z,64.50
2019-03-31T17:20:09.601Z,63.90
2019-03-31T17:22:35.879Z,63.90
2019-03-31T17:25:03.416Z,64.70
2019-03-31T17:27:29.799Z,65.00
2019-03-31T17:29:56.246Z,65.20
2019-03-31T17:32:22.761Z,65.70
2019-03-31T17:34:49.735Z,65.40
2019-03-31T17:37:16.063Z,65.20
2019-03-31T17:39:42.488Z,66.10
2019-03-31T17:42:14.822Z,65.40
2019-03-31T17:44:41.173Z,64.70
2019-03-31T17:47:07.563Z,65.20
2019-03-31T17:49:33.919Z,65.40
2019-03-31T17:52:01.386Z,65.50
2019-03-31T17:54:27.786Z,65.10
2019-03-31T17:56:54.206Z,65.50
2019-03-31T17:59:20.610Z,66.50
2019-03-31T18:01:52.998Z,66.30
2019-03-31T18:04:19.339Z,66.70
2019-03-31T18:06:48.954Z,67.60
2019-03-31T18:09:15.238Z,66.90
2019-03-31T18:11:41.483Z,66.80
2019-03-31T18:14:08.017Z,67.60
2019-03-31T18:16:34.368Z,67.20
2019-03-31T18:19:03.944Z,67.50
2019-03-31T18:21:30.443Z,67.60
2019-03-31T18:23:56.856Z,68.10
2019-03-31T18:26:23.380Z,68.10
2019-03-31T18:28:49.769Z,68.40
2019-03-31T18:31:16.071Z,68.60
2019-03-31T18:33:42.481Z,68.20
2019-03-31T18:36:08.871Z,67.80
2019-03-31T18:38:35.347Z,68.50
2019-03-31T18:41:03.713Z,68.40
2019-03-31T18:43:29.878Z,68.40
2019-03-31T18:46:02.106Z,68.80
2019-03-31T18:48:29.338Z,68.90
2019-03-31T18:50:55.567Z,69.20
2019-03-31T18:53:29.715Z,70.00
2019-03-31T18:56:13.080Z,70.40
2019-03-31T18:58:56.406Z,70.40
2019-03-31T19:01:42.847Z,71.30
2019-03-31T19:04:11.115Z,71.50
2019-03-31T19:06:48.456Z,70.50
2019-03-31T19:09:25.625Z,70.40
2019-03-31T19:11:56.684Z,69.70
2019-03-31T19:14:30.851Z,70.30
2019-03-31T19:17:08.171Z,71.20
2019-03-31T19:19:42.411Z,71.40
2019-03-31T19:22:13.431Z,72.00
2019-03-31T19:24:58.505Z,72.20
2019-03-31T19:27:29.899Z,72.00
2019-03-31T19:30:01.034Z,71.90
2019-03-31T19:32:52.471Z,71.70
2019-03-31T19:35:26.403Z,73.10
2019-03-31T19:37:54.681Z,72.70
2019-03-31T19:40:41.436Z,71.80
2019-03-31T19:43:30.693Z,72.30
2019-03-31T19:46:17.032Z,72.60
2019-03-31T19:48:47.915Z,72.30
2019-03-31T19:51:21.075Z,72.60
2019-03-31T19:53:58.511Z,72.10
2019-03-31T19:56:44.946Z,72.70
2019-03-31T19:59:30.260Z,72.80
2019-03-31T20:02:17.228Z,73.00
2019-03-31T20:04:51.618Z,73.20
2019-03-31T20:07:19.795Z,73.50
2019-03-31T20:09:53.841Z,72.80
2019-03-31T20:12:25.100Z,73.00
2019-03-31T20:15:11.580Z,73.50
2019-03-31T20:17:39.796Z,73.40
2019-03-31T20:20:16.863Z,73.10
2019-03-31T20:22:56.931Z,73.30
2019-03-31T20:25:25.188Z,73.70
2019-03-31T20:27:55.506Z,74.30
2019-03-31T20:30:26.530Z,74.30
2019-03-31T20:33:07.522Z,74.90
2019-03-31T20:35:41.796Z,74.70
2019-03-31T20:38:13.471Z,74.80
2019-03-31T20:40:41.616Z,75.00
2019-03-31T20:43:09.828Z,75.30
2019-03-31T20:45:36.102Z,74.60
2019-03-31T20:48:02.372Z,75.00
2019-03-31T20:50:28.806Z,75.10
2019-03-31T20:52:55.094Z,75.70
2019-03-31T20:55:21.433Z,76.20
2019-03-31T20:57:53.762Z,76.30
2019-03-31T21:00:22.146Z,76.40
2019-03-31T21:02:48.579Z,76.50
2019-03-31T21:05:14.992Z,76.80
2019-03-31T21:07:41.383Z,77.10
2019-03-31T21:10:07.657Z,77.30
2019-03-31T21:12:33.969Z,77.70
2019-03-31T21:15:00.404Z,78.20
2019-03-31T21:17:26.655Z,78.50
2019-03-31T21:19:58.952Z,78.20
2019-03-31T21:22:25.329Z,78.40
2019-03-31T21:24:51.805Z,78.50
2019-03-31T21:27:18.254Z,78.90
2019-03-31T21:29:50.689Z,79.20
2019-03-31T21:32:17.105Z,79.20
2019-03-31T21:34:43.433Z,79.60
2019-03-31T21:37:09.758Z,80.00
2019-03-31T21:39:36.130Z,80.20
2019-03-31T21:42:02.770Z,80.30
2019-03-31T21:44:29.025Z,80.50
2019-03-31T21:46:56.131Z,80.50
2019-03-31T21:49:22.790Z,80.90
2019-03-31T21:51:49.115Z,81.20
2019-03-31T21:54:15.602Z,81.30
2019-03-31T21:56:41.936Z,81.00
2019-03-31T21:59:08.209Z,80.70
2019-03-31T22:01:34.530Z,80.70
2019-03-31T22:04:02.249Z,80.50
2019-03-31T22:06:28.666Z,81.00
2019-03-31T22:08:55.053Z,80.30
2019-03-31T22:11:21.428Z,79.80
2019-03-31T22:13:47.682Z,79.50
2019-03-31T22:16:13.978Z,78.50
2019-03-31T22:18:40.329Z,77.90
2019-03-31T22:21:06.701Z,78.30
2019-03-31T22:23:33.074Z,78.00
2019-03-31T22:26:03.174Z,78.30
2019-03-31T22:28:29.561Z,78.10
2019-03-31T22:30:59.089Z,77.60
2019-03-31T22:33:25.734Z,77.60
2019-03-31T22:36:13.626Z,77.40
2019-03-31T22:38:42.132Z,76.90
2019-03-31T22:41:08.460Z,76.00
2019-03-31T22:43:34.809Z,75.50
2019-03-31T22:46:01.264Z,75.00
2019-03-31T22:48:27.544Z,75.00
2019-03-31T22:50:54.052Z,74.80
2019-03-31T22:53:20.457Z,75.10
2019-03-31T22:55:46.759Z,74.60
2019-03-31T22:58:13.043Z,74.70
2019-03-31T23:00:45.423Z,75.30
2019-03-31T23:03:11.847Z,75.00
2019-03-31T23:05:38.155Z,74.30
2019-03-31T23:08:04.421Z,73.10
2019-03-31T23:10:30.782Z,72.20
2019-03-31T23:12:57.144Z,71.90
2019-03-31T23:15:25.445Z,71.70
2019-03-31T23:17:51.758Z,72.40
2019-03-31T23:20:18.135Z,73.10
2019-03-31T23:22:49.325Z,72.60
2019-03-31T23:25:19.153Z,72.40
2019-03-31T23:27:45.612Z,71.60
2019-03-31T23:30:12.078Z,71.50
2019-03-31T23:32:38.427Z,71.20
2019-03-31T23:35:05.656Z,71.70
2019-03-31T23:37:33.066Z,72.00
2019-03-31T23:39:59.500Z,72.60
2019-03-31T23:42:25.822Z,72.60
2019-03-31T23:44:55.175Z,72.10
2019-03-31T23:47:21.509Z,71.90
2019-03-31T23:49:47.990Z,72.30
2019-03-31T23:52:14.588Z,72.40
2019-03-31T23:54:47.064Z,72.50
2019-03-31T23:57:13.349Z,72.80
2019-03-31T23:59:40.738Z,72.00
